.
WxDataArchive / Data Records for 2007-05-29
2007-05-28 May 2007 2007-05-30

Data Records for Tuesday, 29 May 2007

Time	Temp	Chill	HIndex	Humid	Dewpt	 Wind 	HiWind	WindDir	Rain 	Barom 
-----	----	-----	------	-----	-----	------	------	-------	-----	----- 
00:00	63.5	63.5	63.5	92	61.1	0	0	---	0.00	30.124 
00:05	63.4	63.4	63.4	92	61.0	0	0	---	0.00	30.127 
00:10	63.2	63.2	63.2	92	60.8	0	0	---	0.00	30.127 
00:15	63.2	63.2	63.2	92	60.8	0	0	---	0.00	30.127 
00:20	63.2	63.2	63.2	92	60.8	0	0	---	0.00	30.125 
00:25	63.1	63.1	63.1	93	61.0	0	0	---	0.00	30.125 
00:30	62.9	62.9	62.9	93	60.8	0	0	---	0.00	30.123 
00:35	63.1	63.1	63.1	93	61.0	0	0	---	0.00	30.122 
00:40	62.9	62.9	62.9	94	61.1	0	0	---	0.00	30.123 
00:45	62.7	62.7	62.7	94	60.9	0	0	---	0.00	30.125 
00:50	62.7	62.7	62.7	94	60.9	0	0	---	0.00	30.127 
00:55	62.7	62.7	62.7	94	60.9	0	0	---	0.00	30.127 
01:00	62.6	62.6	62.6	94	60.8	0	0	---	0.00	30.125 
01:05	62.4	62.4	62.4	94	60.6	0	0	---	0.00	30.125 
01:10	62.3	62.3	62.3	94	60.5	0	0	---	0.00	30.125 
01:15	62.3	62.3	62.3	94	60.5	0	0	---	0.00	30.122 
01:20	62.1	62.1	62.1	95	60.6	0	0	---	0.00	30.123 
01:25	62.1	62.1	62.1	95	60.6	0	0	---	0.00	30.122 
01:30	62.0	62.0	62.0	95	60.5	0	0	---	0.00	30.123 
01:35	62.0	62.0	62.0	95	60.5	0	0	---	0.00	30.120 
01:40	61.8	61.8	61.8	95	60.3	0	0	---	0.00	30.122 
01:45	61.8	61.8	61.8	95	60.3	0	0	---	0.00	30.122 
01:50	61.6	61.6	61.6	95	60.2	0	0	---	0.00	30.122 
01:55	61.6	61.6	61.6	95	60.2	0	0	---	0.00	30.120 
02:00	61.6	61.6	61.6	95	60.2	0	0	---	0.00	30.119 
02:05	61.5	61.5	61.5	96	60.3	0	0	---	0.00	30.119 
02:10	61.3	61.3	61.3	96	60.1	0	0	---	0.00	30.119 
02:15	61.2	61.2	61.2	95	59.8	0	0	---	0.00	30.119 
02:20	61.0	61.0	61.0	95	59.6	0	0	---	0.00	30.120 
02:25	61.0	61.0	61.0	96	59.8	0	0	---	0.00	30.120 
02:30	60.9	60.9	60.9	96	59.7	0	0	---	0.00	30.119 
02:35	61.0	61.0	61.0	96	59.8	0	0	---	0.00	30.120 
02:40	60.9	60.9	60.9	96	59.7	0	0	---	0.00	30.121 
02:45	60.9	60.9	60.9	96	59.7	0	0	---	0.00	30.120 
02:50	60.9	60.9	60.9	96	59.7	0	0	---	0.00	30.119 
02:55	60.7	60.7	60.7	96	59.6	0	0	---	0.00	30.119 
03:00	60.5	60.5	60.5	96	59.4	0	0	---	0.00	30.119 
03:05	60.4	60.4	60.4	96	59.3	0	0	---	0.00	30.120 
03:10	60.4	60.4	60.4	96	59.3	0	0	---	0.00	30.120 
03:15	60.2	60.2	60.2	96	59.1	0	0	---	0.00	30.120 
03:20	60.2	60.2	60.2	96	59.1	0	0	---	0.00	30.120 
03:25	60.1	60.1	60.1	96	59.0	0	0	---	0.00	30.121 
03:30	59.9	59.9	59.9	96	58.8	0	0	---	0.00	30.121 
03:35	59.9	59.9	59.9	96	58.8	0	0	---	0.00	30.121 
03:40	59.8	59.8	59.8	96	58.7	0	0	---	0.00	30.123 
03:45	59.8	59.8	59.8	96	58.7	0	0	---	0.00	30.124 
03:50	59.6	59.6	59.6	96	58.5	0	0	---	0.00	30.125 
03:55	59.6	59.6	59.6	96	58.5	0	0	---	0.00	30.125 
04:00	59.6	59.6	59.6	96	58.5	0	0	---	0.00	30.125 
04:05	59.5	59.5	59.5	96	58.4	0	0	---	0.00	30.129 
04:10	59.5	59.5	59.5	96	58.4	0	0	---	0.00	30.129 
04:15	59.5	59.5	59.5	96	58.4	0	0	---	0.00	30.128 
04:20	59.5	59.5	59.5	96	58.4	0	0	---	0.00	30.128 
04:25	59.5	59.5	59.5	96	58.4	0	0	---	0.00	30.130 
04:30	59.3	59.3	59.3	96	58.2	0	0	---	0.00	30.132 
04:35	59.3	59.3	59.3	96	58.2	0	0	---	0.00	30.128 
04:40	59.3	59.3	59.3	96	58.2	0	0	---	0.00	30.128 
04:45	59.3	59.3	59.3	97	58.4	0	0	---	0.00	30.127 
04:50	59.3	59.3	59.3	97	58.4	0	0	---	0.00	30.126 
04:55	59.3	59.3	59.3	97	58.4	0	0	---	0.00	30.132 
05:00	59.3	59.3	59.3	97	58.4	0	0	---	0.00	30.132 
05:05	59.2	59.2	59.2	97	58.3	0	0	---	0.00	30.135 
05:10	59.2	59.2	59.2	97	58.3	0	0	---	0.00	30.136 
05:15	59.2	59.2	59.2	97	58.3	0	0	---	0.00	30.136 
05:20	59.2	59.2	59.2	97	58.3	0	0	---	0.00	30.137 
05:25	59.2	59.2	59.2	97	58.3	0	0	---	0.00	30.139 
05:30	59.2	59.2	59.2	97	58.3	0	0	---	0.00	30.142 
05:35	59.2	59.2	59.2	97	58.3	0	0	---	0.00	30.144 
05:40	59.2	59.2	59.2	97	58.3	0	0	---	0.00	30.150 
05:45	59.3	59.3	59.3	97	58.4	0	1	248	0.00	30.152 
05:50	59.8	59.8	59.8	97	58.9	0	1	248	0.00	30.152 
05:55	60.2	60.2	60.2	97	59.3	0	1	248	0.00	30.153 
06:00	60.4	60.4	60.4	97	59.5	0	1	248	0.00	30.153 
06:05	60.5	60.5	60.5	97	59.6	0	0	---	0.00	30.151 
06:10	60.5	60.5	60.5	97	59.6	0	1	248	0.00	30.152 
06:15	60.7	60.7	60.7	97	59.8	0	0	---	0.00	30.155 
06:20	61.0	61.0	61.0	97	60.1	0	0	---	0.00	30.154 
06:25	61.5	61.5	61.5	98	60.9	0	0	---	0.00	30.153 
06:30	61.8	61.8	61.8	98	61.2	0	1	248	0.00	30.157 
06:35	62.3	62.3	62.3	98	61.7	0	1	248	0.00	30.161 
06:40	62.6	62.6	62.6	98	62.0	0	1	248	0.00	30.161 
06:45	62.9	62.9	62.9	97	62.0	1	2	248	0.00	30.163 
06:50	63.1	63.1	63.1	97	62.2	0	2	248	0.00	30.164 
06:55	63.2	63.2	63.2	96	62.0	0	1	248	0.00	30.165 
07:00	63.5	63.5	63.5	95	62.0	0	0	---	0.00	30.166 
07:05	64.0	64.0	64.0	95	62.5	0	0	---	0.00	30.169 
07:10	64.5	64.5	64.5	94	62.7	0	0	---	0.00	30.169 
07:15	64.8	64.8	64.8	93	62.7	0	0	---	0.00	30.167 
07:20	65.2	65.2	65.2	92	62.8	0	0	---	0.00	30.168 
07:25	65.6	65.6	65.6	91	62.9	0	0	---	0.00	30.168 
07:30	66.4	66.4	66.4	89	63.1	0	1	248	0.00	30.170 
07:35	67.3	67.3	67.3	87	63.3	0	0	---	0.00	30.169 
07:40	68.1	68.1	68.1	84	63.1	0	2	248	0.00	30.173 
07:45	68.9	68.9	68.9	82	63.2	0	1	248	0.00	30.173 
07:50	69.8	69.8	69.8	81	63.7	0	0	---	0.00	30.174 
07:55	70.4	70.4	70.4	79	63.6	1	2	248	0.00	30.175 
08:00	71.1	71.1	71.1	79	64.2	0	2	248	0.00	30.174 
08:05	71.6	71.6	71.6	76	63.6	0	2	248	0.00	30.178 
08:10	71.6	71.6	71.6	76	63.6	0	1	248	0.00	30.178 
08:15	71.6	71.6	71.6	77	64.0	0	1	248	0.00	30.178 
08:20	71.6	71.6	71.6	78	64.4	0	2	248	0.00	30.179 
08:25	71.6	71.6	71.6	78	64.4	0	2	248	0.00	30.179 
08:30	71.5	71.5	71.5	78	64.3	1	2	248	0.00	30.182 
08:35	71.5	71.5	71.5	77	63.9	1	2	248	0.00	30.184 
08:40	71.6	71.6	71.6	78	64.4	1	2	248	0.00	30.185 
08:45	71.8	71.8	71.8	78	64.6	0	2	248	0.00	30.188 
08:50	72.0	72.0	72.0	78	64.8	1	3	248	0.00	30.189 
08:55	72.1	72.1	72.1	77	64.5	1	3	248	0.00	30.190 
09:00	72.3	72.3	72.3	79	65.4	1	3	248	0.00	30.189 
09:05	72.7	72.7	72.7	75	64.3	1	3	68	0.00	30.190 
09:10	73.3	73.3	73.3	74	64.5	1	3	68	0.00	30.189 
09:15	74.2	74.2	74.2	74	65.4	1	3	68	0.00	30.185 
09:20	74.9	74.9	74.9	71	64.8	1	2	68	0.00	30.185 
09:25	75.4	75.4	77.1	69	64.5	0	1	68	0.00	30.185 
09:30	75.6	75.6	77.3	69	64.7	1	3	68	0.00	30.184 
09:35	75.8	75.8	77.6	67	64.0	1	3	68	0.00	30.186 
09:40	76.0	76.0	77.7	68	64.7	1	3	68	0.00	30.184 
09:45	76.1	76.1	77.9	66	63.9	1	3	68	0.00	30.182 
09:50	76.5	76.5	78.3	66	64.3	1	3	90	0.00	30.181 
09:55	77.4	77.4	79.2	65	64.7	1	4	90	0.00	30.180 
10:00	78.1	78.1	80.0	65	65.4	1	3	90	0.00	30.179 
10:05	78.6	78.6	80.4	63	64.9	2	3	90	0.00	30.180 
10:10	78.8	78.8	80.6	62	64.7	1	3	90	0.00	30.179 
10:15	79.6	79.6	81.3	60	64.5	2	4	112	0.00	30.178 
10:20	79.9	79.9	81.6	59	64.3	2	5	90	0.00	30.177 
10:25	79.9	79.9	81.4	57	63.3	2	5	112	0.00	30.178 
10:30	79.8	79.8	81.4	58	63.7	1	4	112	0.00	30.175 
10:35	80.1	80.1	81.7	58	64.0	2	5	112	0.00	30.175 
10:40	79.9	79.9	81.7	60	64.7	1	3	90	0.00	30.175 
10:45	80.7	80.7	82.2	56	63.5	1	4	90	0.00	30.175 
10:50	81.2	81.2	83.2	59	65.5	1	3	112	0.00	30.174 
10:55	81.8	81.8	83.2	54	63.5	1	4	112	0.00	30.174 
11:00	82.0	82.0	83.4	54	63.7	1	3	90	0.00	30.171 
11:05	81.8	81.8	83.2	54	63.5	2	4	90	0.00	30.169 
11:10	81.8	81.8	83.2	54	63.5	1	4	90	0.00	30.167 
11:15	82.2	82.2	84.0	56	64.9	1	3	270	0.00	30.164 
11:20	82.6	82.6	84.5	56	65.3	1	5	90	0.00	30.164 
11:25	82.6	82.6	83.8	52	63.2	2	4	90	0.00	30.164 
11:30	82.6	82.6	83.4	50	62.0	2	4	112	0.00	30.162 
11:35	82.4	82.4	83.2	50	61.9	1	4	112	0.00	30.162 
11:40	82.6	82.6	83.8	52	63.2	1	4	90	0.00	30.161 
11:45	83.2	83.2	83.8	48	61.4	1	3	45	0.00	30.159 
11:50	83.6	83.6	84.4	49	62.4	1	4	45	0.00	30.157 
11:55	84.0	84.0	84.5	47	61.6	1	3	90	0.00	30.154 
12:00	84.3	84.3	85.1	48	62.4	1	3	112	0.00	30.152 
12:05	84.5	84.5	84.7	45	60.8	1	4	112	0.00	30.150 
12:10	84.5	84.5	84.9	46	61.4	1	3	112	0.00	30.150 
12:15	84.7	84.7	85.2	46	61.6	1	3	22	0.00	30.149 
12:20	84.5	84.5	84.9	46	61.4	1	4	22	0.00	30.147 
12:25	84.3	84.3	85.1	48	62.4	1	2	270	0.00	30.147 
12:30	84.1	84.1	84.3	45	60.4	1	4	112	0.00	30.146 
12:35	84.3	84.3	84.5	45	60.6	2	5	90	0.00	30.146 
12:40	84.7	84.7	85.8	49	63.4	1	3	90	0.00	30.144 
12:45	84.3	84.3	84.1	43	59.3	1	1	90	0.00	30.143 
12:50	84.5	84.5	84.9	46	61.4	0	1	90	0.00	30.144 
12:55	85.1	85.1	86.6	50	64.3	1	2	90	0.00	30.142 
13:00	85.7	85.7	85.5	42	59.9	0	3	202	0.00	30.141 
13:05	85.9	85.9	85.7	42	60.1	1	4	68	0.00	30.138 
13:10	85.9	85.9	86.2	44	61.4	1	3	248	0.00	30.135 
13:15	86.1	86.1	86.2	43	61.0	1	2	248	0.00	30.133 
13:20	85.7	85.7	85.3	41	59.3	0	3	270	0.00	30.132 
13:25	86.1	86.1	86.0	42	60.3	0	2	270	0.00	30.130 
13:30	86.5	86.5	85.8	39	58.6	1	4	248	0.00	30.128 
13:35	86.3	86.3	85.4	38	57.7	0	2	248	0.00	30.128 
13:40	86.3	86.3	86.0	41	59.8	0	1	292	0.00	30.126 
13:45	86.3	86.3	86.0	41	59.8	1	4	292	0.00	30.125 
13:50	85.7	85.7	85.7	43	60.6	1	4	68	0.00	30.123 
13:55	85.3	85.3	85.2	43	60.2	1	2	68	0.00	30.125 
14:00	85.1	85.1	84.6	41	58.7	2	4	90	0.00	30.121 
14:05	85.3	85.3	84.5	39	57.5	0	1	90	0.00	30.119 
14:10	85.9	85.9	85.1	39	58.0	1	2	90	0.00	30.116 
14:15	86.5	86.5	85.2	36	56.3	1	3	90	0.00	30.114 
14:20	86.7	86.7	85.6	37	57.3	2	4	90	0.00	30.113 
14:25	86.7	86.7	85.8	38	58.0	1	4	90	0.00	30.111 
14:30	86.7	86.7	85.6	37	57.3	1	4	90	0.00	30.110 
14:35	87.0	87.0	86.6	40	59.7	1	3	90	0.00	30.108 
14:40	87.4	87.4	86.7	38	58.6	0	1	90	0.00	30.105 
14:45	87.6	87.6	87.1	39	59.5	1	3	90	0.00	30.101 
14:50	87.8	87.8	86.7	36	57.5	1	4	90	0.00	30.100 
14:55	87.2	87.2	86.6	39	59.2	2	5	68	0.00	30.098 
15:00	87.0	87.0	86.2	38	58.3	2	4	112	0.00	30.098 
15:05	86.7	86.7	85.2	35	55.7	1	4	112	0.00	30.098 
15:10	87.0	87.0	86.9	41	60.4	1	2	225	0.00	30.097 
15:15	87.2	87.2	86.6	39	59.2	0	1	225	0.00	30.094 
15:20	87.6	87.6	87.4	40	60.3	1	3	90	0.00	30.088 
15:25	87.2	87.2	86.4	38	58.5	2	5	90	0.00	30.087 
15:30	86.5	86.5	85.4	37	57.1	2	4	90	0.00	30.085 
15:35	85.9	85.9	85.1	39	58.0	1	4	90	0.00	30.085 
15:40	85.5	85.5	84.9	40	58.4	2	5	90	0.00	30.083 
15:45	85.5	85.5	84.7	39	57.7	1	3	112	0.00	30.082 
15:50	86.1	86.1	85.2	38	57.5	1	4	112	0.00	30.082 
15:55	87.0	87.0	86.4	39	59.0	1	3	90	0.00	30.082 
16:00	87.4	87.4	86.4	37	57.9	1	3	90	0.00	30.082 
16:05	87.2	87.2	85.8	35	56.2	1	3	90	0.00	30.081 
16:10	86.5	86.5	85.6	38	57.8	1	2	90	0.00	30.080 
16:15	85.9	85.9	84.6	36	55.8	1	3	90	0.00	30.081 
16:20	85.5	85.5	84.7	39	57.7	1	3	90	0.00	30.079 
16:25	85.1	85.1	84.3	39	57.3	0	1	90	0.00	30.077 
16:30	84.9	84.9	84.4	41	58.5	0	1	90	0.00	30.078 
16:35	85.1	85.1	84.4	40	58.0	0	2	90	0.00	30.079 
16:40	85.5	85.5	84.7	39	57.7	0	1	90	0.00	30.075 
16:45	85.9	85.9	84.6	36	55.8	0	1	90	0.00	30.072 
16:50	86.3	86.3	86.0	41	59.8	0	2	90	0.00	30.069 
16:55	86.3	86.3	85.8	40	59.1	1	2	90	0.00	30.069 
17:00	86.1	86.1	84.8	36	56.0	1	4	90	0.00	30.068 
17:05	85.9	85.9	84.9	38	57.3	0	1	90	0.00	30.067 
17:10	85.9	85.9	84.7	37	56.6	0	2	90	0.00	30.066 
17:15	85.9	85.9	85.7	42	60.1	0	1	90	0.00	30.065 
17:20	85.9	85.9	84.9	38	57.3	1	2	90	0.00	30.065 
17:25	85.7	85.7	85.1	40	58.6	0	1	90	0.00	30.066 
17:30	85.7	85.7	85.5	42	59.9	0	2	90	0.00	30.064 
17:35	85.5	85.5	84.7	39	57.7	2	3	90	0.00	30.062 
17:40	85.3	85.3	84.5	39	57.5	1	3	90	0.00	30.062 
17:45	85.3	85.3	84.3	38	56.8	0	2	90	0.00	30.059 
17:50	85.3	85.3	84.8	41	58.9	0	1	90	0.00	30.056 
17:55	85.3	85.3	84.7	40	58.2	0	1	90	0.00	30.056 
18:00	85.1	85.1	84.6	41	58.7	0	1	90	0.00	30.055 
18:05	85.1	85.1	84.4	40	58.0	0	0	---	0.00	30.052 
18:10	85.1	85.1	84.4	40	58.0	0	1	90	0.00	30.052 
18:15	85.1	85.1	84.4	40	58.0	0	0	---	0.00	30.052 
18:20	85.1	85.1	84.6	41	58.7	0	0	---	0.00	30.052 
18:25	85.1	85.1	84.8	42	59.4	0	2	90	0.00	30.051 
18:30	84.9	84.9	84.8	43	59.9	0	1	90	0.00	30.052 
18:35	84.7	84.7	84.6	43	59.7	0	1	90	0.00	30.052 
18:40	84.5	84.5	84.0	41	58.2	0	1	90	0.00	30.052 
18:45	84.3	84.3	84.1	43	59.3	0	1	90	0.00	30.052 
18:50	84.1	84.1	84.1	44	59.8	0	1	90	0.00	30.053 
18:55	84.0	84.0	83.8	43	59.1	0	1	90	0.00	30.052 
19:00	83.6	83.6	83.7	45	60.0	0	3	90	0.00	30.051 
19:05	83.4	83.4	83.5	45	59.8	0	1	90	0.00	30.047 
19:10	83.0	83.0	83.4	47	60.7	0	0	---	0.00	30.046 
19:15	82.6	82.6	83.0	47	60.3	0	2	90	0.00	30.047 
19:20	82.4	82.4	82.6	46	59.5	1	3	90	0.00	30.050 
19:25	82.0	82.0	82.2	46	59.1	0	2	90	0.00	30.051 
19:30	81.8	81.8	82.1	47	59.6	0	1	90	0.00	30.052 
19:35	81.6	81.6	81.9	47	59.4	1	2	90	0.00	30.052 
19:40	81.2	81.2	81.6	47	59.0	0	2	90	0.00	30.053 
19:45	81.2	81.2	81.6	47	59.0	1	4	90	0.00	30.052 
19:50	81.1	81.1	81.5	47	58.9	0	1	90	0.00	30.053 
19:55	80.9	80.9	81.5	49	59.9	0	1	90	0.00	30.053 
20:00	80.5	80.5	81.2	49	59.6	1	3	90	0.00	30.051 
20:05	80.1	80.1	80.9	50	59.8	0	2	90	0.00	30.052 
20:10	79.8	79.8	80.6	50	59.5	0	0	---	0.00	30.052 
20:15	79.2	79.2	80.3	52	60.0	0	1	90	0.00	30.053 
20:20	78.8	78.8	79.9	52	59.7	0	1	90	0.00	30.053 
20:25	78.5	78.5	79.8	54	60.4	0	1	90	0.00	30.054 
20:30	78.3	78.3	79.6	53	59.7	0	1	90	0.00	30.058 
20:35	78.1	78.1	79.5	54	60.1	0	0	---	0.00	30.056 
20:40	77.9	77.9	79.3	54	59.9	0	0	---	0.00	30.057 
20:45	77.4	77.4	79.0	55	59.9	0	0	---	0.00	30.060 
20:50	77.0	77.0	78.7	55	59.6	0	0	---	0.00	30.063 
20:55	76.5	76.5	78.4	56	59.6	0	0	---	0.00	30.065 
21:00	76.1	76.1	78.1	57	59.7	0	0	---	0.00	30.065 
21:05	75.8	75.8	77.9	58	59.9	0	0	---	0.00	30.062 
21:10	75.4	75.4	77.6	59	60.1	0	0	---	0.00	30.065 
21:15	75.1	75.1	77.4	61	60.7	0	0	---	0.00	30.067 
21:20	74.7	74.7	74.7	62	60.8	0	0	---	0.00	30.071 
21:25	74.6	74.6	74.6	62	60.7	0	0	---	0.00	30.073 
21:30	74.2	74.2	74.2	62	60.3	0	0	---	0.00	30.076 
21:35	73.9	73.9	73.9	63	60.5	0	0	---	0.00	30.077 
21:40	73.7	73.7	73.7	63	60.3	0	0	---	0.00	30.076 
21:45	73.3	73.3	73.3	64	60.4	0	0	---	0.00	30.076 
21:50	73.2	73.2	73.2	65	60.7	0	0	---	0.00	30.079 
21:55	73.0	73.0	73.0	65	60.5	0	0	---	0.00	30.079 
22:00	72.8	72.8	72.8	66	60.8	0	0	---	0.00	30.079 
22:05	72.7	72.7	72.7	66	60.7	0	0	---	0.00	30.077 
22:10	72.5	72.5	72.5	67	60.9	0	0	---	0.00	30.077 
22:15	72.3	72.3	72.3	66	60.3	0	0	---	0.00	30.078 
22:20	72.5	72.5	72.5	65	60.0	0	1	90	0.00	30.078 
22:25	72.8	72.8	72.8	63	59.5	0	1	90	0.00	30.078 
22:30	73.5	73.5	73.5	62	59.7	0	1	90	0.00	30.078 
22:35	74.0	74.0	74.0	60	59.2	0	1	90	0.00	30.077 
22:40	74.6	74.6	74.6	59	59.3	0	0	---	0.00	30.078 
22:45	74.7	74.7	74.7	61	60.3	0	0	---	0.00	30.078 
22:50	74.6	74.6	74.6	61	60.2	0	0	---	0.00	30.078 
22:55	74.4	74.4	74.4	61	60.1	0	0	---	0.00	30.077 
23:00	74.2	74.2	74.2	61	59.9	0	0	---	0.00	30.078 
23:05	74.2	74.2	74.2	62	60.3	0	0	---	0.00	30.076 
23:10	74.0	74.0	74.0	62	60.1	0	1	90	0.00	30.077 
23:15	73.9	73.9	73.9	62	60.0	0	0	---	0.00	30.077 
23:20	73.7	73.7	73.7	62	59.9	0	0	---	0.00	30.077 
23:25	73.3	73.3	73.3	62	59.5	0	0	---	0.00	30.077 
23:30	73.2	73.2	73.2	62	59.4	0	0	---	0.00	30.078 
23:35	72.8	72.8	72.8	63	59.5	0	0	---	0.00	30.077 
23:40	72.5	72.5	72.5	64	59.6	0	0	---	0.00	30.076 
23:45	72.1	72.1	72.1	65	59.7	0	0	---	0.00	30.076 
23:50	71.8	71.8	71.8	65	59.4	0	0	---	0.00	30.077 
23:55	71.5	71.5	71.5	67	60.0	0	0	---	0.00	30.077 

CoCoRaHS
IN-AL-39
A2 Web Hosting
Creative Commons License
GoDaddy
Look for:

loaded 2017-12-12 14:49:59 • last modified 2010-11-18 10:43:29
Privacy PolicyDisclaimer
• wx.awcolley.com is powered by PmWiki v.2002016 •
• all content (unless otherwise noted) © 2017 A W Colley